sensor_id;sensor_type;location;lat;lon;timestamp;pressure;altitude;pressure_sealevel;temperature;humidity
81641;BME280;71053;50.722;-1.944;2023-07-20T00:01:37;101309.97;;;16.97;78.76
81641;BME280;71053;50.722;-1.944;2023-07-20T00:04:03;101306.98;;;17.11;78.05
81641;BME280;71053;50.722;-1.944;2023-07-20T00:06:28;101307.67;;;17.04;77.95
81641;BME280;71053;50.722;-1.944;2023-07-20T00:08:53;101305.05;;;17.14;77.67
81641;BME280;71053;50.722;-1.944;2023-07-20T00:11:18;101304.35;;;16.50;80.01
81641;BME280;71053;50.722;-1.944;2023-07-20T00:13:44;101298.79;;;16.85;78.77
81641;BME280;71053;50.722;-1.944;2023-07-20T00:16:09;101298.38;;;16.87;78.79
81641;BME280;71053;50.722;-1.944;2023-07-20T00:18:34;101296.95;;;16.81;79.59
81641;BME280;71053;50.722;-1.944;2023-07-20T00:20:59;101293.11;;;16.87;79.80
81641;BME280;71053;50.722;-1.944;2023-07-20T00:23:24;101297.19;;;16.64;80.28
81641;BME280;71053;50.722;-1.944;2023-07-20T00:25:49;101299.77;;;16.58;80.21
81641;BME280;71053;50.722;-1.944;2023-07-20T00:28:15;101300.57;;;16.80;79.68
81641;BME280;71053;50.722;-1.944;2023-07-20T00:30:40;101302.93;;;16.51;80.49
81641;BME280;71053;50.722;-1.944;2023-07-20T00:33:09;101298.83;;;16.41;81.05
81641;BME280;71053;50.722;-1.944;2023-07-20T00:35:30;101299.25;;;16.64;79.94
81641;BME280;71053;50.722;-1.944;2023-07-20T00:37:56;101295.69;;;16.80;79.00
81641;BME280;71053;50.722;-1.944;2023-07-20T00:40:21;101295.19;;;16.95;78.30
81641;BME280;71053;50.722;-1.944;2023-07-20T00:42:46;101293.54;;;17.00;78.51
81641;BME280;71053;50.722;-1.944;2023-07-20T00:45:11;101293.59;;;16.91;78.47
81641;BME280;71053;50.722;-1.944;2023-07-20T00:47:36;101290.74;;;16.77;78.88
81641;BME280;71053;50.722;-1.944;2023-07-20T00:50:02;101292.81;;;16.55;79.84
81641;BME280;71053;50.722;-1.944;2023-07-20T00:52:28;101292.20;;;16.08;81.67
81641;BME280;71053;50.722;-1.944;2023-07-20T00:54:56;101284.25;;;16.39;80.70
81641;BME280;71053;50.722;-1.944;2023-07-20T00:57:19;101284.48;;;16.40;80.43
81641;BME280;71053;50.722;-1.944;2023-07-20T00:59:44;101285.79;;;16.01;82.89
81641;BME280;71053;50.722;-1.944;2023-07-20T01:02:09;101278.49;;;16.29;81.26
81641;BME280;71053;50.722;-1.944;2023-07-20T01:04:35;101276.51;;;16.15;81.66
81641;BME280;71053;50.722;-1.944;2023-07-20T01:07:06;101277.40;;;16.23;81.52
81641;BME280;71053;50.722;-1.944;2023-07-20T01:09:30;101276.61;;;16.09;81.63
81641;BME280;71053;50.722;-1.944;2023-07-20T01:11:57;101272.91;;;15.79;83.31
81641;BME280;71053;50.722;-1.944;2023-07-20T01:14:17;101274.03;;;16.00;82.23
81641;BME280;71053;50.722;-1.944;2023-07-20T01:16:41;101271.95;;;15.68;83.64
81641;BME280;71053;50.722;-1.944;2023-07-20T01:19:06;101266.09;;;15.39;85.38
81641;BME280;71053;50.722;-1.944;2023-07-20T01:21:40;101270.00;;;15.78;83.42
81641;BME280;71053;50.722;-1.944;2023-07-20T01:24:19;101265.40;;;15.36;85.11
81641;BME280;71053;50.722;-1.944;2023-07-20T01:26:38;101267.26;;;15.62;85.51
81641;BME280;71053;50.722;-1.944;2023-07-20T01:29:03;101270.77;;;15.67;83.55
81641;BME280;71053;50.722;-1.944;2023-07-20T01:31:18;101273.07;;;15.74;83.62
81641;BME280;71053;50.722;-1.944;2023-07-20T01:33:41;101271.28;;;15.60;83.49
81641;BME280;71053;50.722;-1.944;2023-07-20T01:36:05;101268.71;;;15.54;84.08
81641;BME280;71053;50.722;-1.944;2023-07-20T01:38:30;101266.85;;;15.26;85.14
81641;BME280;71053;50.722;-1.944;2023-07-20T01:40:56;101268.15;;;15.34;84.97
81641;BME280;71053;50.722;-1.944;2023-07-20T01:43:20;101267.45;;;15.36;84.40
81641;BME280;71053;50.722;-1.944;2023-07-20T01:45:45;101263.17;;;15.49;83.83
81641;BME280;71053;50.722;-1.944;2023-07-20T01:48:11;101262.60;;;15.57;82.97
81641;BME280;71053;50.722;-1.944;2023-07-20T01:50:36;101263.10;;;15.43;84.60
81641;BME280;71053;50.722;-1.944;2023-07-20T01:53:01;101262.05;;;15.45;84.24
81641;BME280;71053;50.722;-1.944;2023-07-20T01:55:26;101259.71;;;15.39;84.03
81641;BME280;71053;50.722;-1.944;2023-07-20T01:57:52;101260.18;;;15.56;83.19
81641;BME280;71053;50.722;-1.944;2023-07-20T02:00:18;101256.72;;;15.44;83.93
81641;BME280;71053;50.722;-1.944;2023-07-20T02:02:42;101258.93;;;15.48;83.29
81641;BME280;71053;50.722;-1.944;2023-07-20T02:05:08;101259.16;;;15.42;83.23
81641;BME280;71053;50.722;-1.944;2023-07-20T02:07:33;101255.58;;;15.47;83.48
81641;BME280;71053;50.722;-1.944;2023-07-20T02:09:58;101250.48;;;15.39;83.24
81641;BME280;71053;50.722;-1.944;2023-07-20T02:12:23;101250.42;;;15.40;83.30
81641;BME280;71053;50.722;-1.944;2023-07-20T02:14:49;101248.64;;;15.40;83.32
81641;BME280;71053;50.722;-1.944;2023-07-20T02:17:14;101247.66;;;15.48;82.64
81641;BME280;71053;50.722;-1.944;2023-07-20T02:19:40;101247.43;;;15.47;82.70
81641;BME280;71053;50.722;-1.944;2023-07-20T02:22:05;101246.11;;;15.21;83.78
81641;BME280;71053;50.722;-1.944;2023-07-20T02:24:30;101247.68;;;15.12;84.36
81641;BME280;71053;50.722;-1.944;2023-07-20T02:26:55;101244.34;;;15.11;84.53
81641;BME280;71053;50.722;-1.944;2023-07-20T02:29:20;101247.96;;;15.12;83.94
81641;BME280;71053;50.722;-1.944;2023-07-20T02:31:46;101250.15;;;15.11;84.45
81641;BME280;71053;50.722;-1.944;2023-07-20T02:34:11;101252.52;;;15.28;84.59
81641;BME280;71053;50.722;-1.944;2023-07-20T02:36:36;101253.63;;;15.29;83.48
81641;BME280;71053;50.722;-1.944;2023-07-20T02:39:02;101250.98;;;15.30;83.33
81641;BME280;71053;50.722;-1.944;2023-07-20T02:41:27;101251.42;;;15.31;82.80
81641;BME280;71053;50.722;-1.944;2023-07-20T02:43:52;101250.56;;;15.21;83.28
81641;BME280;71053;50.722;-1.944;2023-07-20T02:46:17;101251.45;;;15.32;82.82
81641;BME280;71053;50.722;-1.944;2023-07-20T02:48:42;101248.35;;;15.41;82.53
81641;BME280;71053;50.722;-1.944;2023-07-20T02:51:08;101248.44;;;15.51;81.34
81641;BME280;71053;50.722;-1.944;2023-07-20T02:53:33;101243.81;;;15.49;81.38
81641;BME280;71053;50.722;-1.944;2023-07-20T02:55:58;101243.37;;;15.45;82.38
81641;BME280;71053;50.722;-1.944;2023-07-20T02:58:24;101243.09;;;15.39;84.21
81641;BME280;71053;50.722;-1.944;2023-07-20T03:00:49;101243.54;;;15.28;82.39
81641;BME280;71053;50.722;-1.944;2023-07-20T03:03:14;101240.30;;;15.41;81.24
81641;BME280;71053;50.722;-1.944;2023-07-20T03:05:40;101242.47;;;15.47;81.75
81641;BME280;71053;50.722;-1.944;2023-07-20T03:08:05;101238.08;;;15.01;82.18
81641;BME280;71053;50.722;-1.944;2023-07-20T03:10:30;101237.47;;;14.85;83.21
81641;BME280;71053;50.722;-1.944;2023-07-20T03:12:55;101238.54;;;14.96;82.27
81641;BME280;71053;50.722;-1.944;2023-07-20T03:15:20;101237.98;;;15.19;81.69
81641;BME280;71053;50.722;-1.944;2023-07-20T03:17:46;101238.24;;;15.09;81.71
81641;BME280;71053;50.722;-1.944;2023-07-20T03:20:11;101239.26;;;15.26;81.51
81641;BME280;71053;50.722;-1.944;2023-07-20T03:22:36;101236.93;;;15.11;81.37
81641;BME280;71053;50.722;-1.944;2023-07-20T03:25:02;101243.75;;;15.27;81.11
81641;BME280;71053;50.722;-1.944;2023-07-20T03:27:27;101241.04;;;15.14;81.47
81641;BME280;71053;50.722;-1.944;2023-07-20T03:29:52;101241.00;;;15.30;80.83
81641;BME280;71053;50.722;-1.944;2023-07-20T03:32:17;101239.33;;;15.27;80.72
81641;BME280;71053;50.722;-1.944;2023-07-20T03:34:43;101239.13;;;15.30;80.83
81641;BME280;71053;50.722;-1.944;2023-07-20T03:37:08;101235.42;;;15.01;81.10
81641;BME280;71053;50.722;-1.944;2023-07-20T03:39:33;101235.78;;;15.03;81.58
81641;BME280;71053;50.722;-1.944;2023-07-20T03:41:59;101235.70;;;15.18;80.90
81641;BME280;71053;50.722;-1.944;2023-07-20T03:44:24;101235.12;;;14.71;82.46
81641;BME280;71053;50.722;-1.944;2023-07-20T03:46:49;101235.81;;;14.90;81.77
81641;BME280;71053;50.722;-1.944;2023-07-20T03:49:15;101231.77;;;14.92;81.93
81641;BME280;71053;50.722;-1.944;2023-07-20T03:51:40;101232.68;;;14.76;82.25
81641;BME280;71053;50.722;-1.944;2023-07-20T03:54:06;101233.84;;;14.80;82.23
81641;BME280;71053;50.722;-1.944;2023-07-20T03:56:31;101236.13;;;14.85;82.66
81641;BME280;71053;50.722;-1.944;2023-07-20T03:58:56;101235.82;;;14.78;81.92
81641;BME280;71053;50.722;-1.944;2023-07-20T04:01:22;101233.48;;;14.42;83.48
81641;BME280;71053;50.722;-1.944;2023-07-20T04:03:47;101235.68;;;14.45;83.23
81641;BME280;71053;50.722;-1.944;2023-07-20T04:06:12;101237.67;;;14.71;82.00
81641;BME280;71053;50.722;-1.944;2023-07-20T04:08:37;101236.34;;;14.84;81.35
81641;BME280;71053;50.722;-1.944;2023-07-20T04:11:03;101231.89;;;14.53;82.51
81641;BME280;71053;50.722;-1.944;2023-07-20T04:13:29;101233.49;;;14.85;81.64
81641;BME280;71053;50.722;-1.944;2023-07-20T04:15:53;101234.08;;;14.58;82.15
81641;BME280;71053;50.722;-1.944;2023-07-20T04:18:19;101234.38;;;14.79;81.63
81641;BME280;71053;50.722;-1.944;2023-07-20T04:20:44;101236.90;;;14.62;82.66
81641;BME280;71053;50.722;-1.944;2023-07-20T04:23:09;101236.71;;;14.61;82.23
81641;BME280;71053;50.722;-1.944;2023-07-20T04:25:35;101238.14;;;14.63;82.34
81641;BME280;71053;50.722;-1.944;2023-07-20T04:28:00;101235.24;;;14.53;82.42
81641;BME280;71053;50.722;-1.944;2023-07-20T04:30:25;101234.04;;;14.67;81.42
81641;BME280;71053;50.722;-1.944;2023-07-20T04:32:50;101232.35;;;14.66;81.63
81641;BME280;71053;50.722;-1.944;2023-07-20T04:35:25;101229.19;;;14.75;81.11
81641;BME280;71053;50.722;-1.944;2023-07-20T04:37:41;101228.15;;;14.70;81.35
81641;BME280;71053;50.722;-1.944;2023-07-20T04:40:08;101231.59;;;14.91;80.41
81641;BME280;71053;50.722;-1.944;2023-07-20T04:42:32;101236.16;;;14.73;81.09
81641;BME280;71053;50.722;-1.944;2023-07-20T04:44:57;101238.90;;;14.79;80.91
81641;BME280;71053;50.722;-1.944;2023-07-20T04:47:23;101239.78;;;14.74;81.36
81641;BME280;71053;50.722;-1.944;2023-07-20T04:49:49;101238.44;;;14.69;81.51
81641;BME280;71053;50.722;-1.944;2023-07-20T04:52:14;101240.68;;;14.63;81.75
81641;BME280;71053;50.722;-1.944;2023-07-20T04:54:39;101240.62;;;14.73;81.01
81641;BME280;71053;50.722;-1.944;2023-07-20T04:57:10;101239.93;;;14.87;80.33
81641;BME280;71053;50.722;-1.944;2023-07-20T04:59:30;101240.91;;;15.09;78.77
81641;BME280;71053;50.722;-1.944;2023-07-20T05:01:55;101241.93;;;15.16;79.05
81641;BME280;71053;50.722;-1.944;2023-07-20T05:04:20;101241.86;;;15.21;78.67
81641;BME280;71053;50.722;-1.944;2023-07-20T05:06:46;101240.92;;;15.26;78.39
81641;BME280;71053;50.722;-1.944;2023-07-20T05:09:12;101239.26;;;15.15;78.98
81641;BME280;71053;50.722;-1.944;2023-07-20T05:11:37;101241.62;;;15.44;77.83
81641;BME280;71053;50.722;-1.944;2023-07-20T05:14:02;101239.28;;;15.27;78.22
81641;BME280;71053;50.722;-1.944;2023-07-20T05:16:27;101241.75;;;15.01;78.79
81641;BME280;71053;50.722;-1.944;2023-07-20T05:18:53;101240.40;;;15.17;78.49
81641;BME280;71053;50.722;-1.944;2023-07-20T05:21:18;101239.76;;;14.81;79.49
81641;BME280;71053;50.722;-1.944;2023-07-20T05:23:43;101240.73;;;14.87;79.66
81641;BME280;71053;50.722;-1.944;2023-07-20T05:26:09;101239.96;;;14.50;81.14
81641;BME280;71053;50.722;-1.944;2023-07-20T05:28:35;101240.58;;;14.46;81.81
81641;BME280;71053;50.722;-1.944;2023-07-20T05:31:02;101237.85;;;14.67;81.68
81641;BME280;71053;50.722;-1.944;2023-07-20T05:33:26;101238.16;;;14.61;80.87
81641;BME280;71053;50.722;-1.944;2023-07-20T05:35:51;101234.53;;;14.67;81.75
81641;BME280;71053;50.722;-1.944;2023-07-20T05:38:16;101233.55;;;14.60;81.27
81641;BME280;71053;50.722;-1.944;2023-07-20T05:40:43;101232.53;;;14.56;81.26
81641;BME280;71053;50.722;-1.944;2023-07-20T05:43:07;101232.73;;;14.96;79.37
81641;BME280;71053;50.722;-1.944;2023-07-20T05:45:32;101233.67;;;14.90;79.60
81641;BME280;71053;50.722;-1.944;2023-07-20T05:47:58;101233.45;;;15.06;77.95
81641;BME280;71053;50.722;-1.944;2023-07-20T05:50:23;101230.45;;;14.61;79.52
81641;BME280;71053;50.722;-1.944;2023-07-20T05:52:48;101232.41;;;14.82;78.68
81641;BME280;71053;50.722;-1.944;2023-07-20T05:55:14;101231.77;;;14.89;80.99
81641;BME280;71053;50.722;-1.944;2023-07-20T05:57:39;101227.88;;;14.83;78.28
81641;BME280;71053;50.722;-1.944;2023-07-20T06:00:05;101232.10;;;14.89;77.58
81641;BME280;71053;50.722;-1.944;2023-07-20T06:02:29;101235.39;;;15.00;77.48
81641;BME280;71053;50.722;-1.944;2023-07-20T06:04:55;101241.51;;;15.20;77.97
81641;BME280;71053;50.722;-1.944;2023-07-20T06:07:20;101242.23;;;15.19;77.50
81641;BME280;71053;50.722;-1.944;2023-07-20T06:09:45;101242.74;;;15.36;79.04
81641;BME280;71053;50.722;-1.944;2023-07-20T06:12:12;101243.78;;;15.55;75.49
81641;BME280;71053;50.722;-1.944;2023-07-20T06:14:36;101242.18;;;15.17;75.12
81641;BME280;71053;50.722;-1.944;2023-07-20T06:17:01;101239.92;;;15.30;76.28
81641;BME280;71053;50.722;-1.944;2023-07-20T06:19:27;101239.87;;;15.52;75.42
81641;BME280;71053;50.722;-1.944;2023-07-20T06:21:52;101242.20;;;15.83;76.62
81641;BME280;71053;50.722;-1.944;2023-07-20T06:24:18;101239.67;;;15.79;74.25
81641;BME280;71053;50.722;-1.944;2023-07-20T06:26:43;101239.17;;;16.17;74.07
81641;BME280;71053;50.722;-1.944;2023-07-20T06:29:08;101235.54;;;16.20;71.98
81641;BME280;71053;50.722;-1.944;2023-07-20T06:31:33;101240.33;;;16.25;72.65
81641;BME280;71053;50.722;-1.944;2023-07-20T06:33:58;101237.02;;;16.09;72.10
81641;BME280;71053;50.722;-1.944;2023-07-20T06:36:23;101235.86;;;16.10;74.23
81641;BME280;71053;50.722;-1.944;2023-07-20T06:38:49;101235.78;;;16.20;73.00
81641;BME280;71053;50.722;-1.944;2023-07-20T06:41:14;101236.25;;;16.26;71.64
81641;BME280;71053;50.722;-1.944;2023-07-20T06:43:39;101239.02;;;16.33;70.83
81641;BME280;71053;50.722;-1.944;2023-07-20T06:46:04;101238.40;;;16.26;71.17
81641;BME280;71053;50.722;-1.944;2023-07-20T06:48:30;101239.61;;;16.22;71.46
81641;BME280;71053;50.722;-1.944;2023-07-20T06:50:55;101234.76;;;16.55;72.77
81641;BME280;71053;50.722;-1.944;2023-07-20T06:53:20;101234.71;;;16.67;70.90
81641;BME280;71053;50.722;-1.944;2023-07-20T06:55:45;101232.29;;;16.66;70.07
81641;BME280;71053;50.722;-1.944;2023-07-20T06:58:11;101232.82;;;16.77;67.15
81641;BME280;71053;50.722;-1.944;2023-07-20T07:00:36;101233.05;;;17.07;68.24
81641;BME280;71053;50.722;-1.944;2023-07-20T07:03:01;101230.49;;;17.11;67.76
81641;BME280;71053;50.722;-1.944;2023-07-20T07:05:26;101230.48;;;17.39;67.90
81641;BME280;71053;50.722;-1.944;2023-07-20T07:07:51;101230.63;;;17.42;67.44
81641;BME280;71053;50.722;-1.944;2023-07-20T07:10:17;101235.31;;;17.39;65.26
81641;BME280;71053;50.722;-1.944;2023-07-20T07:12:42;101234.87;;;17.12;67.32
81641;BME280;71053;50.722;-1.944;2023-07-20T07:15:09;101237.03;;;17.21;65.66
81641;BME280;71053;50.722;-1.944;2023-07-20T07:17:33;101239.68;;;17.47;66.58
81641;BME280;71053;50.722;-1.944;2023-07-20T07:19:58;101236.67;;;17.35;67.76
81641;BME280;71053;50.722;-1.944;2023-07-20T07:22:23;101237.28;;;17.06;66.08
81641;BME280;71053;50.722;-1.944;2023-07-20T07:24:48;101235.36;;;17.27;68.68
81641;BME280;71053;50.722;-1.944;2023-07-20T07:27:13;101233.30;;;17.37;65.75
81641;BME280;71053;50.722;-1.944;2023-07-20T07:29:39;101229.57;;;17.13;66.70
81641;BME280;71053;50.722;-1.944;2023-07-20T07:32:05;101228.54;;;17.45;66.20
81641;BME280;71053;50.722;-1.944;2023-07-20T07:34:29;101225.42;;;17.64;66.32
81641;BME280;71053;50.722;-1.944;2023-07-20T07:36:54;101226.03;;;17.54;66.44
81641;BME280;71053;50.722;-1.944;2023-07-20T07:39:20;101224.98;;;17.41;64.98
81641;BME280;71053;50.722;-1.944;2023-07-20T07:41:45;101225.03;;;17.68;66.18
81641;BME280;71053;50.722;-1.944;2023-07-20T07:44:10;101221.60;;;17.74;64.00
81641;BME280;71053;50.722;-1.944;2023-07-20T07:46:35;101221.25;;;17.89;66.27
81641;BME280;71053;50.722;-1.944;2023-07-20T07:49:00;101220.95;;;18.06;63.84
81641;BME280;71053;50.722;-1.944;2023-07-20T07:51:25;101221.90;;;18.33;63.75
81641;BME280;71053;50.722;-1.944;2023-07-20T07:53:51;101218.59;;;18.16;62.67
81641;BME280;71053;50.722;-1.944;2023-07-20T07:56:16;101217.31;;;18.42;63.66
81641;BME280;71053;50.722;-1.944;2023-07-20T07:58:41;101217.93;;;18.25;61.98
81641;BME280;71053;50.722;-1.944;2023-07-20T08:01:06;101215.79;;;18.35;61.81
81641;BME280;71053;50.722;-1.944;2023-07-20T08:03:31;101215.50;;;18.45;61.84
81641;BME280;71053;50.722;-1.944;2023-07-20T08:05:56;101216.59;;;18.49;62.95
81641;BME280;71053;50.722;-1.944;2023-07-20T08:08:21;101219.37;;;18.72;62.86
81641;BME280;71053;50.722;-1.944;2023-07-20T08:10:47;101223.80;;;18.77;60.74
81641;BME280;71053;50.722;-1.944;2023-07-20T08:13:12;101221.87;;;19.05;61.27
81641;BME280;71053;50.722;-1.944;2023-07-20T08:15:37;101221.58;;;19.06;59.41
81641;BME280;71053;50.722;-1.944;2023-07-20T08:18:02;101222.09;;;18.91;61.16
81641;BME280;71053;50.722;-1.944;2023-07-20T08:20:27;101224.74;;;18.91;58.17
81641;BME280;71053;50.722;-1.944;2023-07-20T08:22:54;101217.89;;;19.07;57.13
81641;BME280;71053;50.722;-1.944;2023-07-20T08:25:18;101220.16;;;19.28;56.82
81641;BME280;71053;50.722;-1.944;2023-07-20T08:27:43;101213.87;;;18.92;58.25
81641;BME280;71053;50.722;-1.944;2023-07-20T08:30:09;101214.46;;;19.11;58.40
81641;BME280;71053;50.722;-1.944;2023-07-20T08:32:33;101218.36;;;19.33;58.23
81641;BME280;71053;50.722;-1.944;2023-07-20T08:34:58;101218.90;;;19.27;57.22
81641;BME280;71053;50.722;-1.944;2023-07-20T08:37:23;101220.02;;;19.46;57.82
81641;BME280;71053;50.722;-1.944;2023-07-20T08:39:48;101218.22;;;19.52;56.84
81641;BME280;71053;50.722;-1.944;2023-07-20T08:42:14;101214.08;;;19.67;56.46
81641;BME280;71053;50.722;-1.944;2023-07-20T08:44:39;101212.46;;;19.64;56.90
81641;BME280;71053;50.722;-1.944;2023-07-20T08:47:05;101213.83;;;19.43;56.26
81641;BME280;71053;50.722;-1.944;2023-07-20T08:49:30;101213.39;;;19.66;54.53
81641;BME280;71053;50.722;-1.944;2023-07-20T08:51:54;101210.44;;;19.76;53.32
81641;BME280;71053;50.722;-1.944;2023-07-20T08:54:19;101215.34;;;19.53;55.14
81641;BME280;71053;50.722;-1.944;2023-07-20T08:56:45;101212.50;;;19.70;53.22
81641;BME280;71053;50.722;-1.944;2023-07-20T08:59:09;101209.94;;;19.54;54.43
81641;BME280;71053;50.722;-1.944;2023-07-20T09:01:36;101210.56;;;19.21;54.61
81641;BME280;71053;50.722;-1.944;2023-07-20T09:04:00;101206.53;;;19.37;56.24
81641;BME280;71053;50.722;-1.944;2023-07-20T09:06:25;101208.32;;;19.50;57.17
81641;BME280;71053;50.722;-1.944;2023-07-20T09:08:50;101208.04;;;19.57;56.06
81641;BME280;71053;50.722;-1.944;2023-07-20T09:11:15;101204.49;;;19.87;56.73
81641;BME280;71053;50.722;-1.944;2023-07-20T09:13:40;101203.53;;;19.96;54.03
81641;BME280;71053;50.722;-1.944;2023-07-20T09:16:06;101204.19;;;20.04;53.08
81641;BME280;71053;50.722;-1.944;2023-07-20T09:18:32;101202.07;;;19.92;51.96
81641;BME280;71053;50.722;-1.944;2023-07-20T09:20:58;101200.47;;;20.15;54.05
81641;BME280;71053;50.722;-1.944;2023-07-20T09:23:30;101199.08;;;18.95;53.13
81641;BME280;71053;50.722;-1.944;2023-07-20T09:25:48;101205.42;;;19.33;51.81
81641;BME280;71053;50.722;-1.944;2023-07-20T09:28:11;101203.88;;;19.07;52.12
81641;BME280;71053;50.722;-1.944;2023-07-20T09:30:36;101196.65;;;19.05;51.99
81641;BME280;71053;50.722;-1.944;2023-07-20T09:33:01;101198.03;;;19.47;54.99
81641;BME280;71053;50.722;-1.944;2023-07-20T09:35:27;101194.34;;;19.78;55.50
81641;BME280;71053;50.722;-1.944;2023-07-20T09:37:54;101194.02;;;19.92;54.58
81641;BME280;71053;50.722;-1.944;2023-07-20T09:40:17;101191.74;;;20.09;55.02
81641;BME280;71053;50.722;-1.944;2023-07-20T09:42:42;101185.85;;;20.27;53.16
81641;BME280;71053;50.722;-1.944;2023-07-20T09:45:08;101183.47;;;20.41;53.88
81641;BME280;71053;50.722;-1.944;2023-07-20T09:47:36;101185.09;;;20.61;53.95
81641;BME280;71053;50.722;-1.944;2023-07-20T09:49:59;101186.24;;;20.51;52.73
81641;BME280;71053;50.722;-1.944;2023-07-20T09:52:22;101183.80;;;20.72;52.58
81641;BME280;71053;50.722;-1.944;2023-07-20T09:54:47;101181.45;;;20.66;52.69
81641;BME280;71053;50.722;-1.944;2023-07-20T09:57:13;101180.19;;;20.92;53.25
81641;BME280;71053;50.722;-1.944;2023-07-20T09:59:38;101180.22;;;21.13;52.09
81641;BME280;71053;50.722;-1.944;2023-07-20T10:02:07;101181.32;;;21.07;52.49
81641;BME280;71053;50.722;-1.944;2023-07-20T10:04:28;101180.44;;;20.84;51.51
81641;BME280;71053;50.722;-1.944;2023-07-20T10:06:54;101177.68;;;20.67;53.57
81641;BME280;71053;50.722;-1.944;2023-07-20T10:09:18;101174.12;;;20.51;53.23
81641;BME280;71053;50.722;-1.944;2023-07-20T10:11:48;101173.96;;;20.44;52.74
81641;BME280;71053;50.722;-1.944;2023-07-20T10:14:08;101178.48;;;20.28;52.35
81641;BME280;71053;50.722;-1.944;2023-07-20T10:16:35;101175.64;;;20.57;50.91
81641;BME280;71053;50.722;-1.944;2023-07-20T10:19:03;101176.24;;;20.81;50.76
81641;BME280;71053;50.722;-1.944;2023-07-20T10:21:23;101175.27;;;20.44;51.71
81641;BME280;71053;50.722;-1.944;2023-07-20T10:23:49;101175.92;;;20.77;50.03
81641;BME280;71053;50.722;-1.944;2023-07-20T10:26:14;101176.26;;;20.51;49.80
81641;BME280;71053;50.722;-1.944;2023-07-20T10:28:39;101173.11;;;20.97;51.23
81641;BME280;71053;50.722;-1.944;2023-07-20T10:31:04;101172.47;;;21.21;49.84
81641;BME280;71053;50.722;-1.944;2023-07-20T10:33:29;101169.28;;;21.06;49.46
81641;BME280;71053;50.722;-1.944;2023-07-20T10:35:55;101172.43;;;21.23;50.48
81641;BME280;71053;50.722;-1.944;2023-07-20T10:38:19;101168.81;;;21.31;47.93
81641;BME280;71053;50.722;-1.944;2023-07-20T10:40:54;101170.75;;;21.43;50.16
81641;BME280;71053;50.722;-1.944;2023-07-20T10:43:10;101164.79;;;21.40;49.46
81641;BME280;71053;50.722;-1.944;2023-07-20T10:45:36;101173.93;;;21.55;47.76
81641;BME280;71053;50.722;-1.944;2023-07-20T10:48:03;101168.15;;;21.69;49.95
81641;BME280;71053;50.722;-1.944;2023-07-20T10:50:24;101164.23;;;21.75;48.16
81641;BME280;71053;50.722;-1.944;2023-07-20T10:55:15;101161.62;;;22.44;46.71
81641;BME280;71053;50.722;-1.944;2023-07-20T10:57:39;101164.43;;;22.31;44.63
81641;BME280;71053;50.722;-1.944;2023-07-20T11:00:10;101162.39;;;22.40;45.29
81641;BME280;71053;50.722;-1.944;2023-07-20T11:04:54;101163.46;;;22.11;47.70
81641;BME280;71053;50.722;-1.944;2023-07-20T11:09:44;101165.42;;;21.51;50.66
81641;BME280;71053;50.722;-1.944;2023-07-20T11:12:10;101163.68;;;21.53;50.62
81641;BME280;71053;50.722;-1.944;2023-07-20T11:14:40;101162.15;;;21.38;51.54
81641;BME280;71053;50.722;-1.944;2023-07-20T11:17:11;101162.27;;;21.24;51.47
81641;BME280;71053;50.722;-1.944;2023-07-20T11:19:25;101161.53;;;20.92;51.95
81641;BME280;71053;50.722;-1.944;2023-07-20T11:21:52;101161.59;;;20.94;51.67
81641;BME280;71053;50.722;-1.944;2023-07-20T11:24:15;101158.74;;;21.64;51.12
81641;BME280;71053;50.722;-1.944;2023-07-20T11:26:42;101159.57;;;21.72;50.85
81641;BME280;71053;50.722;-1.944;2023-07-20T11:29:05;101162.58;;;21.81;50.72
81641;BME280;71053;50.722;-1.944;2023-07-20T11:31:30;101157.48;;;22.15;49.12
81641;BME280;71053;50.722;-1.944;2023-07-20T11:33:55;101152.81;;;22.17;48.46
81641;BME280;71053;50.722;-1.944;2023-07-20T11:36:20;101152.16;;;22.28;48.54
81641;BME280;71053;50.722;-1.944;2023-07-20T11:38:46;101147.45;;;22.43;49.51
81641;BME280;71053;50.722;-1.944;2023-07-20T11:41:10;101150.06;;;21.95;49.87
81641;BME280;71053;50.722;-1.944;2023-07-20T11:43:35;101145.61;;;22.41;49.31
81641;BME280;71053;50.722;-1.944;2023-07-20T11:46:00;101143.90;;;22.33;48.06
81641;BME280;71053;50.722;-1.944;2023-07-20T11:48:25;101138.27;;;22.53;46.31
81641;BME280;71053;50.722;-1.944;2023-07-20T11:50:50;101131.60;;;22.02;45.87
81641;BME280;71053;50.722;-1.944;2023-07-20T11:53:16;101132.84;;;22.01;45.51
81641;BME280;71053;50.722;-1.944;2023-07-20T11:55:41;101128.48;;;22.08;45.77
81641;BME280;71053;50.722;-1.944;2023-07-20T11:58:06;101126.81;;;22.56;44.99
81641;BME280;71053;50.722;-1.944;2023-07-20T12:00:31;101126.46;;;22.56;45.02
81641;BME280;71053;50.722;-1.944;2023-07-20T12:02:55;101124.96;;;22.56;47.22
81641;BME280;71053;50.722;-1.944;2023-07-20T12:05:22;101122.96;;;22.33;46.99
81641;BME280;71053;50.722;-1.944;2023-07-20T12:07:45;101122.33;;;22.14;48.97
81641;BME280;71053;50.722;-1.944;2023-07-20T12:10:12;101120.88;;;21.92;50.31
81641;BME280;71053;50.722;-1.944;2023-07-20T12:12:38;101127.77;;;21.44;50.89
81641;BME280;71053;50.722;-1.944;2023-07-20T12:15:12;101129.96;;;21.36;52.23
81641;BME280;71053;50.722;-1.944;2023-07-20T12:17:26;101125.84;;;21.59;51.99
81641;BME280;71053;50.722;-1.944;2023-07-20T12:19:57;101126.18;;;21.14;53.15
81641;BME280;71053;50.722;-1.944;2023-07-20T12:22:16;101122.68;;;21.02;53.62
81641;BME280;71053;50.722;-1.944;2023-07-20T12:24:41;101122.49;;;20.94;53.86
81641;BME280;71053;50.722;-1.944;2023-07-20T12:27:06;101115.96;;;21.17;53.63
81641;BME280;71053;50.722;-1.944;2023-07-20T12:29:31;101111.99;;;21.53;53.16
81641;BME280;71053;50.722;-1.944;2023-07-20T12:31:56;101110.22;;;21.83;51.87
81641;BME280;71053;50.722;-1.944;2023-07-20T12:34:21;101109.58;;;22.13;51.33
81641;BME280;71053;50.722;-1.944;2023-07-20T12:36:46;101107.82;;;22.15;51.21